Time;durP1;ratioP1;P1;durP2;ratioP2;P2;SDS_P1;SDS_P2;PMS_P1;PMS_P2;Temp;Humidity;BMP_temperature;BMP_pressure;BME280_temperature;BME280_humidity;BME280_pressure;Samples;Min_cycle;Max_cycle;Signal;HPM_P1;HPM_P2
2020/12/03 00:00:52;;;;;;;91.22;42.28;;;0.80;99.90;;;;;;5036984;28;20024;-49
2020/12/03 00:03:24;;;;;;;94.80;43.55;;;0.80;99.90;;;;;;5046280;28;20117;-49
2020/12/03 00:06:03;;;;;;;94.97;44.83;;;0.80;99.90;;;;;;5048128;28;20021;-49
2020/12/03 00:08:32;;;;;;;88.90;40.65;;;0.80;99.90;;;;;;5045557;28;20402;-49
2020/12/03 00:11:00;;;;;;;88.65;42.38;;;0.90;99.90;;;;;;5046959;28;20314;-49
2020/12/03 00:13:28;;;;;;;91.20;42.03;;;0.90;99.90;;;;;;5048646;28;20025;-51
2020/12/03 00:15:59;;;;;;;91.28;43.97;;;0.90;99.90;;;;;;5040149;28;20033;-49
2020/12/03 00:18:27;;;;;;;86.57;41.20;;;0.90;99.90;;;;;;5040967;28;20052;-50
2020/12/03 00:20:53;;;;;;;94.25;43.38;;;0.90;99.90;;;;;;5044170;28;20030;-48
2020/12/03 00:23:21;;;;;;;94.68;43.20;;;0.90;99.90;;;;;;5038936;28;20024;-50
2020/12/03 00:25:48;;;;;;;86.05;40.88;;;1.00;99.90;;;;;;5046819;28;20049;-48
2020/12/03 00:28:14;;;;;;;95.18;43.10;;;1.00;99.90;;;;;;5038069;28;20079;-51
2020/12/03 00:30:39;;;;;;;89.60;40.67;;;1.00;99.90;;;;;;5026538;28;20037;-52
2020/12/03 00:33:06;;;;;;;95.35;43.05;;;0.90;99.90;;;;;;5026686;28;20040;-50
2020/12/03 00:35:32;;;;;;;95.28;43.22;;;1.00;99.90;;;;;;5027008;28;20083;-49
2020/12/03 00:37:57;;;;;;;90.57;42.85;;;0.90;99.90;;;;;;5028293;28;20025;-50
2020/12/03 00:40:23;;;;;;;93.43;44.40;;;0.90;99.90;;;;;;5031206;28;20029;-50
2020/12/03 00:42:54;;;;;;;97.55;42.92;;;0.80;99.90;;;;;;5048099;28;20021;-49
2020/12/03 00:45:20;;;;;;;88.90;41.72;;;0.80;99.90;;;;;;5044959;28;20021;-50
2020/12/03 00:47:45;;;;;;;98.68;42.95;;;0.80;99.90;;;;;;5040243;28;20063;-50
2020/12/03 00:50:12;;;;;;;92.18;40.30;;;0.80;99.90;;;;;;5028724;28;20029;-51
2020/12/03 00:52:38;;;;;;;85.70;41.42;;;0.80;99.90;;;;;;5035988;28;20053;-50
2020/12/03 00:55:04;;;;;;;89.30;40.10;;;0.80;99.90;;;;;;5046264;28;20025;-49
2020/12/03 00:57:30;;;;;;;85.72;40.63;;;0.90;99.90;;;;;;5047896;28;20066;-49
2020/12/03 00:59:55;;;;;;;78.25;39.17;;;0.90;99.90;;;;;;5044422;28;20064;-49
2020/12/03 01:02:21;;;;;;;80.85;37.88;;;0.90;99.90;;;;;;5039467;28;20425;-51
2020/12/03 01:04:46;;;;;;;77.65;37.80;;;0.90;99.90;;;;;;5045048;28;20256;-49
2020/12/03 01:07:12;;;;;;;84.80;41.83;;;1.00;99.90;;;;;;5038482;28;20442;-49
2020/12/03 01:09:39;;;;;;;83.97;38.70;;;1.00;99.90;;;;;;5045538;28;20032;-49
2020/12/03 01:12:06;;;;;;;78.45;37.20;;;1.00;99.90;;;;;;5045508;28;20025;-50
2020/12/03 01:14:34;;;;;;;87.47;40.90;;;1.00;99.90;;;;;;5049624;28;20037;-51
2020/12/03 01:17:09;;;;;;;78.97;35.83;;;1.00;99.90;;;;;;5045721;28;20028;-50
2020/12/03 01:19:35;;;;;;;76.60;36.83;;;1.10;99.90;;;;;;5032404;28;20048;-49
2020/12/03 01:22:02;;;;;;;80.30;38.83;;;1.10;99.90;;;;;;5049352;28;20029;-56
2020/12/03 01:24:28;;;;;;;77.28;36.88;;;1.10;99.90;;;;;;5050946;28;20215;-51
2020/12/03 01:26:53;;;;;;;81.70;36.83;;;1.10;99.90;;;;;;5046436;28;20025;-49
2020/12/03 01:29:21;;;;;;;75.18;36.45;;;1.10;99.90;;;;;;5043300;28;20116;-49
2020/12/03 01:31:47;;;;;;;76.05;36.13;;;1.20;99.90;;;;;;5049026;28;20120;-51
2020/12/03 01:34:12;;;;;;;76.95;37.20;;;1.10;99.90;;;;;;5042293;28;20104;-49
2020/12/03 01:36:38;;;;;;;70.55;34.92;;;1.10;99.90;;;;;;5050449;28;20036;-51
2020/12/03 01:39:05;;;;;;;72.40;35.17;;;1.10;99.90;;;;;;5050136;28;20025;-48
2020/12/03 01:41:31;;;;;;;77.20;37.17;;;1.10;99.90;;;;;;5034248;28;20026;-49
2020/12/03 01:43:56;;;;;;;74.03;35.47;;;1.20;99.90;;;;;;5031276;28;20033;-49
2020/12/03 01:46:22;;;;;;;82.88;37.47;;;1.20;99.90;;;;;;5044511;28;20053;-49
2020/12/03 01:48:55;;;;;;;76.03;36.22;;;1.20;99.90;;;;;;5034929;28;20028;-49
2020/12/03 01:51:25;;;;;;;80.88;35.63;;;1.20;99.90;;;;;;5049968;28;20386;-51
2020/12/03 01:53:57;;;;;;;72.95;35.65;;;1.20;99.90;;;;;;5050834;28;20517;-48
2020/12/03 01:56:39;;;;;;;72.32;34.63;;;1.20;99.90;;;;;;5043637;28;20068;-49
2020/12/03 01:59:06;;;;;;;71.80;35.10;;;1.30;99.90;;;;;;5038911;28;20101;-49
2020/12/03 02:01:32;;;;;;;71.95;36.42;;;1.20;99.90;;;;;;5034060;28;20052;-49
2020/12/03 02:03:58;;;;;;;69.30;32.60;;;1.20;99.90;;;;;;5048101;28;20210;-49
2020/12/03 02:06:27;;;;;;;82.03;35.90;;;1.20;99.90;;;;;;5050178;28;20202;-49
2020/12/03 02:08:53;;;;;;;72.47;34.20;;;1.20;99.90;;;;;;5047386;28;20040;-49
2020/12/03 02:11:20;;;;;;;75.80;35.72;;;1.30;99.90;;;;;;5048504;28;20021;-50
2020/12/03 02:13:51;;;;;;;73.18;35.45;;;1.30;99.90;;;;;;5032714;28;20048;-52
2020/12/03 02:16:17;;;;;;;76.93;36.03;;;1.20;99.90;;;;;;5030347;28;20103;-52
2020/12/03 02:18:44;;;;;;;78.70;36.75;;;1.30;99.90;;;;;;5044058;28;20037;-50
2020/12/03 02:21:10;;;;;;;73.57;33.75;;;1.30;99.90;;;;;;5044857;28;20029;-50
2020/12/03 02:23:35;;;;;;;67.18;34.38;;;1.30;99.90;;;;;;5037096;28;20029;-50
2020/12/03 02:26:01;;;;;;;73.55;35.53;;;1.30;99.90;;;;;;5030696;28;20450;-49
2020/12/03 02:28:26;;;;;;;74.40;35.00;;;1.30;99.90;;;;;;5045245;28;20066;-50
2020/12/03 02:30:52;;;;;;;71.80;34.40;;;1.30;99.90;;;;;;5047288;28;20044;-52
2020/12/03 02:33:17;;;;;;;72.75;34.92;;;1.30;99.90;;;;;;5039539;28;20455;-52
2020/12/03 02:35:43;;;;;;;69.88;32.92;;;1.20;99.90;;;;;;5043236;28;20044;-51
2020/12/03 02:38:08;;;;;;;66.30;32.72;;;1.20;99.90;;;;;;5049808;28;20108;-51
2020/12/03 02:40:34;;;;;;;72.18;34.22;;;1.20;99.90;;;;;;5047911;28;20362;-50
2020/12/03 02:42:59;;;;;;;75.35;35.45;;;1.20;99.90;;;;;;5038266;28;20137;-50
2020/12/03 02:45:24;;;;;;;75.07;34.10;;;1.20;99.90;;;;;;5048688;28;20035;-52
2020/12/03 02:47:50;;;;;;;69.95;33.75;;;1.20;99.90;;;;;;5043729;28;20119;-53
2020/12/03 02:50:15;;;;;;;76.80;34.72;;;1.20;99.90;;;;;;5048828;28;20029;-49
2020/12/03 02:52:41;;;;;;;76.68;36.13;;;1.20;99.90;;;;;;5046438;28;20029;-52
2020/12/03 02:55:08;;;;;;;72.78;34.55;;;1.20;99.90;;;;;;5049755;28;20416;-52
2020/12/03 02:57:33;;;;;;;75.45;34.00;;;1.20;99.90;;;;;;5047583;28;20036;-51
2020/12/03 02:59:58;;;;;;;76.28;33.50;;;1.20;99.90;;;;;;5039557;28;20038;-52
2020/12/03 03:02:24;;;;;;;65.10;32.20;;;1.30;99.90;;;;;;5046520;28;20302;-49
2020/12/03 03:04:49;;;;;;;65.65;32.05;;;1.30;99.90;;;;;;5049455;28;20116;-49
2020/12/03 03:07:15;;;;;;;61.83;30.25;;;1.30;99.90;;;;;;5047083;28;20091;-50
2020/12/03 03:09:40;;;;;;;69.85;33.72;;;1.30;99.90;;;;;;5037454;28;20061;-47
2020/12/03 03:12:06;;;;;;;63.83;30.35;;;1.30;99.90;;;;;;5028165;28;20032;-47
2020/12/03 03:14:32;;;;;;;68.68;30.13;;;1.30;99.90;;;;;;5030212;28;20552;-47
2020/12/03 03:16:57;;;;;;;64.95;30.90;;;1.30;99.90;;;;;;5036007;28;20513;-48
2020/12/03 03:19:23;;;;;;;59.10;29.23;;;1.40;99.90;;;;;;5028621;28;20399;-48
2020/12/03 03:21:48;;;;;;;61.03;29.48;;;1.40;99.90;;;;;;5036458;28;20029;-47
2020/12/03 03:24:14;;;;;;;61.28;30.38;;;1.40;99.90;;;;;;5038840;28;20077;-48
2020/12/03 03:26:40;;;;;;;56.50;28.98;;;1.40;99.90;;;;;;5046116;28;20037;-49
2020/12/03 03:29:07;;;;;;;64.10;30.20;;;1.40;99.90;;;;;;5040703;28;20608;-46
2020/12/03 03:31:33;;;;;;;59.15;29.58;;;1.40;99.90;;;;;;5039054;28;20029;-47
2020/12/03 03:33:58;;;;;;;57.85;28.58;;;1.40;99.90;;;;;;5047376;28;20029;-47
2020/12/03 03:36:24;;;;;;;66.75;31.58;;;1.40;99.90;;;;;;5048098;28;20044;-48
2020/12/03 03:38:49;;;;;;;62.47;31.05;;;1.40;99.90;;;;;;5047941;28;20208;-48
2020/12/03 03:41:15;;;;;;;59.28;29.48;;;1.40;99.90;;;;;;5047073;28;20238;-46
2020/12/03 03:43:41;;;;;;;59.83;28.17;;;1.40;99.90;;;;;;5047572;28;20025;-47
2020/12/03 03:46:06;;;;;;;60.92;28.85;;;1.40;99.90;;;;;;5045484;28;20389;-49
2020/12/03 03:48:32;;;;;;;65.05;32.50;;;1.40;99.90;;;;;;5029923;28;20037;-48
2020/12/03 03:50:58;;;;;;;67.85;32.47;;;1.50;99.90;;;;;;5036699;28;20132;-47
2020/12/03 03:53:24;;;;;;;57.50;29.35;;;1.50;99.90;;;;;;5047689;28;20029;-46
2020/12/03 03:55:49;;;;;;;68.88;31.83;;;1.50;99.90;;;;;;5047236;28;20033;-48
2020/12/03 03:58:15;;;;;;;66.70;32.60;;;1.50;99.90;;;;;;5046636;28;20037;-47
2020/12/03 04:00:43;;;;;;;60.30;29.55;;;1.50;99.90;;;;;;5048097;28;20051;-47
2020/12/03 04:03:13;;;;;;;69.28;36.25;;;1.50;99.90;;;;;;5030653;28;20064;-48
2020/12/03 04:05:47;;;;;;;60.63;31.63;;;1.50;99.90;;;;;;5027278;28;20397;-50
2020/12/03 04:08:14;;;;;;;64.03;31.73;;;1.50;99.90;;;;;;5027462;28;20044;-48
2020/12/03 04:10:41;;;;;;;63.50;32.85;;;1.50;99.90;;;;;;5036746;28;20441;-50
2020/12/03 04:13:06;;;;;;;65.90;32.08;;;1.50;99.90;;;;;;5046986;28;20029;-47
2020/12/03 04:15:32;;;;;;;61.53;31.13;;;1.50;99.90;;;;;;5046529;28;20020;-48
2020/12/03 04:17:57;;;;;;;63.45;32.00;;;1.50;99.90;;;;;;5034756;28;20136;-50
2020/12/03 04:20:23;;;;;;;68.15;33.10;;;1.40;99.90;;;;;;5046205;28;20068;-48
2020/12/03 04:22:48;;;;;;;62.00;31.70;;;1.40;99.90;;;;;;5046400;28;20025;-49
2020/12/03 04:25:14;;;;;;;69.50;32.67;;;1.40;99.90;;;;;;5048287;28;20067;-48
2020/12/03 04:27:42;;;;;;;67.43;32.22;;;1.40;99.90;;;;;;5048559;28;20028;-48
2020/12/03 04:30:08;;;;;;;61.60;29.80;;;1.50;99.90;;;;;;5043772;28;20025;-49
2020/12/03 04:32:34;;;;;;;67.18;32.40;;;1.50;99.90;;;;;;5026451;28;20053;-49
2020/12/03 04:35:00;;;;;;;67.32;32.30;;;1.40;99.90;;;;;;5035041;28;20060;-48
2020/12/03 04:37:25;;;;;;;60.97;31.30;;;1.40;99.90;;;;;;5040894;28;20052;-46
2020/12/03 04:39:51;;;;;;;68.50;32.88;;;1.50;99.90;;;;;;5046216;28;20106;-46
2020/12/03 04:42:26;;;;;;;63.92;30.83;;;1.50;99.90;;;;;;5047365;28;20025;-49
2020/12/03 04:44:55;;;;;;;69.97;33.13;;;1.50;99.90;;;;;;5047858;28;20028;-48
2020/12/03 04:47:30;;;;;;;62.63;31.90;;;1.40;99.90;;;;;;5043033;28;20022;-51
2020/12/03 04:50:10;;;;;;;70.03;33.22;;;1.40;99.90;;;;;;5032240;28;20274;-47
2020/12/03 04:53:10;;;;;;;63.92;31.50;;;1.40;99.90;;;;;;5044740;28;20405;-48
2020/12/03 04:55:52;;;;;;;64.38;30.85;;;1.40;99.90;;;;;;5051756;28;20025;-48
2020/12/03 04:58:31;;;;;;;68.45;33.22;;;1.40;99.90;;;;;;5050056;28;20143;-48
2020/12/03 05:01:06;;;;;;;68.88;32.85;;;1.40;99.90;;;;;;5029980;28;20022;-48
2020/12/03 05:04:21;;;;;;;64.03;31.95;;;1.30;99.90;;;;;;5038646;28;20042;-48
2020/12/03 05:07:08;;;;;;;68.90;33.80;;;1.40;99.90;;;;;;5028680;28;20033;-48
2020/12/03 05:09:43;;;;;;;68.70;33.83;;;1.40;99.90;;;;;;5046202;28;20036;-49
2020/12/03 05:12:13;;;;;;;66.10;33.55;;;1.40;99.90;;;;;;5036834;28;20045;-48
2020/12/03 05:15:06;;;;;;;59.25;27.27;;;1.40;99.90;;;;;;5031551;28;20068;-48
2020/12/03 05:17:59;;;;;;;72.82;30.80;;;1.30;99.90;;;;;;5033148;28;20029;-50
2020/12/03 05:20:51;;;;;;;66.60;28.17;;;1.30;99.90;;;;;;5031322;28;20049;-50
2020/12/03 05:23:20;;;;;;;72.18;32.83;;;1.40;99.90;;;;;;5038468;28;20117;-47
2020/12/03 05:25:47;;;;;;;70.25;31.45;;;1.30;99.90;;;;;;5040269;28;20032;-51
2020/12/03 05:28:30;;;;;;;67.75;32.63;;;1.30;99.90;;;;;;5051443;28;20052;-48
2020/12/03 05:31:07;;;;;;;61.47;31.33;;;1.30;99.90;;;;;;5046736;28;20029;-48
2020/12/03 05:33:33;;;;;;;75.78;33.53;;;1.40;99.90;;;;;;5044399;28;20528;-48
2020/12/03 05:35:58;;;;;;;67.00;32.72;;;1.40;99.90;;;;;;5048867;28;20036;-50
2020/12/03 05:38:25;;;;;;;71.25;34.15;;;1.40;99.90;;;;;;5043820;28;20035;-49
2020/12/03 05:41:00;;;;;;;68.97;34.42;;;1.40;99.90;;;;;;5044320;28;20401;-50
2020/12/03 05:43:27;;;;;;;77.32;34.53;;;1.50;99.90;;;;;;5040368;28;20021;-48
2020/12/03 05:45:53;;;;;;;70.50;34.20;;;1.40;99.90;;;;;;5050938;28;20108;-46
2020/12/03 05:48:20;;;;;;;69.93;34.90;;;1.50;99.90;;;;;;5039802;28;20108;-49
2020/12/03 05:50:46;;;;;;;70.95;34.17;;;1.50;99.90;;;;;;5045464;28;20028;-48
2020/12/03 05:53:21;;;;;;;63.25;30.92;;;1.50;99.90;;;;;;5048752;28;20029;-48
2020/12/03 05:55:49;;;;;;;67.15;33.00;;;1.50;99.90;;;;;;5040123;28;20040;-50
2020/12/03 05:58:31;;;;;;;59.63;30.98;;;1.40;99.90;;;;;;5044987;28;20445;-51
2020/12/03 06:01:18;;;;;;;61.95;30.48;;;1.40;99.90;;;;;;5035155;28;20014;-51
2020/12/03 06:04:05;;;;;;;65.82;31.42;;;1.40;99.90;;;;;;5029600;28;20053;-48
2020/12/03 06:07:11;;;;;;;64.63;31.60;;;1.50;99.90;;;;;;5039702;28;20022;-47
2020/12/03 06:09:56;;;;;;;63.55;31.23;;;1.50;99.90;;;;;;5048532;28;20025;-46
2020/12/03 06:12:40;;;;;;;64.85;30.45;;;1.60;99.90;;;;;;5048150;28;20025;-45
2020/12/03 06:15:19;;;;;;;64.32;30.15;;;1.60;99.90;;;;;;5047305;28;20053;-48
2020/12/03 06:18:30;;;;;;;60.75;28.65;;;1.70;99.90;;;;;;5027916;28;20024;-46
2020/12/03 06:21:07;;;;;;;62.05;30.05;;;1.60;99.90;;;;;;5034829;28;20032;-47
2020/12/03 06:23:46;;;;;;;55.60;28.60;;;1.50;99.90;;;;;;5048576;28;20021;-47
2020/12/03 06:26:34;;;;;;;58.75;28.23;;;1.50;99.90;;;;;;5047693;28;20075;-47
2020/12/03 06:29:26;;;;;;;55.53;27.77;;;1.60;99.90;;;;;;5049668;28;20056;-47
2020/12/03 06:32:11;;;;;;;52.70;27.85;;;1.60;99.90;;;;;;5040490;28;20126;-49
2020/12/03 06:34:51;;;;;;;57.72;28.65;;;1.60;99.90;;;;;;5041985;28;20025;-46
2020/12/03 06:37:30;;;;;;;53.28;25.95;;;1.50;99.90;;;;;;5033535;28;20260;-46
2020/12/03 06:40:05;;;;;;;53.80;26.55;;;1.60;99.90;;;;;;5039927;28;20502;-46
2020/12/03 06:42:43;;;;;;;50.53;24.95;;;1.60;99.90;;;;;;5037023;28;20088;-47
2020/12/03 06:45:35;;;;;;;49.28;25.52;;;1.60;99.90;;;;;;5035595;28;20561;-47
2020/12/03 06:48:32;;;;;;;54.85;26.40;;;1.60;99.90;;;;;;5037764;28;20033;-47
2020/12/03 06:51:27;;;;;;;53.22;26.17;;;1.70;99.90;;;;;;5046330;28;20444;-49
2020/12/03 06:54:41;;;;;;;51.72;26.58;;;1.60;99.90;;;;;;5039828;28;20017;-48
2020/12/03 06:57:28;;;;;;;48.58;25.92;;;1.60;99.90;;;;;;5045124;28;20037;-47
2020/12/03 07:00:20;;;;;;;46.88;24.20;;;1.70;99.90;;;;;;5045972;28;20108;-46
2020/12/03 07:03:03;;;;;;;54.20;27.00;;;1.70;99.90;;;;;;5045237;28;20055;-48
2020/12/03 07:05:48;;;;;;;47.22;24.15;;;1.70;99.90;;;;;;5034848;28;20475;-49
2020/12/03 07:08:28;;;;;;;48.05;23.65;;;1.70;99.90;;;;;;5037163;28;20025;-49
2020/12/03 07:11:30;;;;;;;53.40;24.75;;;1.70;99.90;;;;;;5027540;28;20079;-46
2020/12/03 07:14:36;;;;;;;45.60;24.58;;;1.80;99.90;;;;;;5046926;28;20037;-47
2020/12/03 07:17:15;;;;;;;46.45;23.58;;;1.70;99.90;;;;;;5039173;28;20014;-46
2020/12/03 07:20:32;;;;;;;48.08;22.45;;;1.80;99.90;;;;;;5035716;28;20030;-48
2020/12/03 07:23:05;;;;;;;48.50;23.80;;;1.80;99.90;;;;;;5039169;28;20058;-45
2020/12/03 07:25:31;;;;;;;49.85;24.42;;;1.80;99.90;;;;;;5029789;28;20091;-46
2020/12/03 07:28:08;;;;;;;43.72;24.08;;;1.80;99.90;;;;;;5028487;28;20490;-45
2020/12/03 07:30:50;;;;;;;46.75;23.40;;;1.80;99.90;;;;;;5033342;28;20026;-46
2020/12/03 07:33:23;;;;;;;43.03;22.88;;;1.80;99.90;;;;;;5030467;28;20071;-45
2020/12/03 07:36:20;;;;;;;46.13;22.85;;;1.90;99.90;;;;;;5029270;28;20099;-50
2020/12/03 07:39:10;;;;;;;46.80;23.98;;;1.90;99.90;;;;;;5040096;28;20021;-47
2020/12/03 07:41:47;;;;;;;42.67;22.83;;;1.90;99.90;;;;;;5045488;28;20037;-46
2020/12/03 07:44:15;;;;;;;42.17;21.63;;;1.90;99.90;;;;;;5047441;28;20017;-49
2020/12/03 07:46:41;;;;;;;43.30;21.83;;;1.90;99.90;;;;;;5046426;28;20030;-48
2020/12/03 07:49:09;;;;;;;43.70;22.27;;;1.90;99.90;;;;;;5046362;28;20067;-48
2020/12/03 07:51:35;;;;;;;46.95;22.65;;;1.90;99.90;;;;;;5037779;28;20271;-48
2020/12/03 07:54:15;;;;;;;45.95;23.13;;;2.00;99.90;;;;;;5047774;28;20115;-49
2020/12/03 07:56:43;;;;;;;43.60;22.48;;;2.00;99.90;;;;;;5044469;28;20028;-49
2020/12/03 07:59:24;;;;;;;39.95;21.08;;;2.00;99.90;;;;;;5041204;28;20349;-48
2020/12/03 08:01:53;;;;;;;;;;;2.00;99.90;;;;;;5027074;28;20026;-49
2020/12/03 08:04:37;;;;;;;41.55;20.75;;;2.10;99.90;;;;;;5028630;28;19905;-48
2020/12/03 08:07:03;;;;;;;44.92;21.67;;;2.00;99.90;;;;;;5035062;28;20424;-49
2020/12/03 08:09:43;;;;;;;42.13;20.85;;;2.00;99.90;;;;;;5037242;28;20385;-48
2020/12/03 08:12:21;;;;;;;40.80;21.02;;;2.10;99.90;;;;;;5041078;28;20032;-48
2020/12/03 08:14:49;;;;;;;39.08;20.48;;;2.10;99.90;;;;;;5042415;28;20438;-47
2020/12/03 08:17:15;;;;;;;40.30;19.65;;;2.10;99.90;;;;;;5036758;28;20028;-48
2020/12/03 08:19:40;;;;;;;43.30;20.73;;;2.10;99.90;;;;;;5037576;28;20482;-47
2020/12/03 08:22:28;;;;;;;39.70;21.20;;;2.10;99.90;;;;;;5045447;28;20028;-48
2020/12/03 08:25:14;;;;;;;43.40;22.40;;;2.20;99.90;;;;;;5042560;28;20041;-47
2020/12/03 08:27:41;;;;;;;40.10;20.15;;;2.20;99.90;;;;;;5037369;28;20056;-47
2020/12/03 08:30:38;;;;;;;38.97;19.45;;;2.30;99.90;;;;;;5044613;28;20510;-50
2020/12/03 08:33:15;;;;;;;40.70;21.60;;;2.40;99.90;;;;;;5037365;28;20052;-50
2020/12/03 08:35:49;;;;;;;37.45;19.63;;;2.40;99.90;;;;;;5038718;28;20021;-48
2020/12/03 08:38:14;;;;;;;36.83;20.55;;;2.40;99.90;;;;;;5046342;28;20039;-49
2020/12/03 08:40:40;;;;;;;40.60;20.25;;;2.60;99.90;;;;;;5046200;28;20107;-48
2020/12/03 08:43:09;;;;;;;39.05;20.70;;;2.70;99.90;;;;;;5042823;28;20071;-52
2020/12/03 08:45:51;;;;;;;40.63;21.27;;;2.70;99.90;;;;;;5027878;28;20443;-52
2020/12/03 08:48:22;;;;;;;37.42;19.63;;;2.80;99.90;;;;;;5034476;28;20400;-52
2020/12/03 08:51:00;;;;;;;38.60;19.77;;;2.90;99.90;;;;;;5042715;28;20371;-50
2020/12/03 08:53:28;;;;;;;43.65;20.58;;;2.90;99.90;;;;;;5046471;28;20019;-46
2020/12/03 08:55:56;;;;;;;34.53;18.95;;;2.90;99.90;;;;;;5046840;28;20037;-47
2020/12/03 08:58:23;;;;;;;37.15;20.35;;;2.90;99.90;;;;;;5041600;28;20033;-49
2020/12/03 09:00:52;;;;;;;37.72;19.90;;;2.90;99.90;;;;;;5034309;28;20032;-48
2020/12/03 09:03:21;;;;;;;35.75;19.45;;;2.90;99.90;;;;;;5030324;28;20013;-48
2020/12/03 09:05:51;;;;;;;37.63;19.98;;;2.90;99.90;;;;;;5034575;28;20025;-48
2020/12/03 09:08:18;;;;;;;42.97;20.88;;;2.90;99.90;;;;;;5035348;28;20108;-48
2020/12/03 09:10:45;;;;;;;42.70;21.00;;;2.90;99.90;;;;;;5032745;28;20029;-48
2020/12/03 09:13:10;;;;;;;38.25;20.95;;;2.70;99.90;;;;;;5042657;28;20033;-50
2020/12/03 09:15:37;;;;;;;39.83;19.40;;;2.70;99.90;;;;;;5027836;28;20032;-49
2020/12/03 09:18:05;;;;;;;37.00;19.40;;;2.70;99.90;;;;;;5034581;28;20029;-48
2020/12/03 09:20:31;;;;;;;36.20;20.67;;;2.70;99.90;;;;;;5025911;28;20029;-48
2020/12/03 09:22:56;;;;;;;42.97;20.40;;;2.60;99.90;;;;;;5026922;28;20414;-49
2020/12/03 09:25:23;;;;;;;43.40;21.20;;;2.70;99.90;;;;;;5027451;28;20025;-48
2020/12/03 09:27:49;;;;;;;36.92;19.60;;;2.70;99.90;;;;;;5040243;28;20013;-49
2020/12/03 09:30:26;;;;;;;44.72;22.67;;;2.60;99.90;;;;;;5046345;28;20108;-48
2020/12/03 09:32:56;;;;;;;44.28;22.63;;;2.70;99.90;;;;;;5047288;28;20064;-48
2020/12/03 09:35:22;;;;;;;44.85;23.05;;;2.70;99.90;;;;;;5051409;28;20135;-48
2020/12/03 09:37:48;;;;;;;43.40;22.10;;;2.80;99.90;;;;;;5040366;28;20506;-48
2020/12/03 09:40:15;;;;;;;47.28;22.50;;;2.70;99.90;;;;;;5031165;28;20121;-51
2020/12/03 09:42:46;;;;;;;45.10;23.52;;;2.70;99.90;;;;;;5030299;28;20021;-49
2020/12/03 09:45:13;;;;;;;;;;;2.90;99.90;;;;;;5031666;28;20024;-47
2020/12/03 09:47:41;;;;;;;46.67;22.58;;;2.90;99.90;;;;;;5043852;28;20390;-48
2020/12/03 09:50:07;;;;;;;42.55;22.70;;;3.10;99.90;;;;;;5036190;28;20497;-47
2020/12/03 09:52:35;;;;;;;43.90;23.65;;;3.20;99.90;;;;;;5049683;28;20033;-48
2020/12/03 09:55:08;;;;;;;46.13;23.25;;;3.30;99.90;;;;;;5050569;28;20123;-48
2020/12/03 09:57:34;;;;;;;50.55;23.98;;;3.30;99.90;;;;;;5048893;28;20525;-49
2020/12/03 10:00:01;;;;;;;47.53;24.13;;;3.30;99.90;;;;;;5049992;28;20056;-49
2020/12/03 10:03:18;;;;;;;47.50;23.30;;;3.40;99.90;;;;;;5047917;28;20029;-48
2020/12/03 10:06:26;;;;;;;48.63;22.80;;;3.30;99.90;;;;;;5048561;28;20437;-49
2020/12/03 10:09:13;;;;;;;46.90;23.30;;;3.30;99.90;;;;;;5049365;28;20516;-48
2020/12/03 10:12:09;;;;;;;44.55;23.33;;;3.30;99.90;;;;;;5040013;28;20176;-51
2020/12/03 10:15:12;;;;;;;46.13;23.55;;;3.30;99.90;;;;;;5029847;28;20026;-48
2020/12/03 10:17:52;;;;;;;47.25;23.85;;;3.20;99.90;;;;;;5033149;28;20267;-51
2020/12/03 10:20:19;;;;;;;47.33;22.38;;;3.30;99.90;;;;;;5028727;28;20037;-48
2020/12/03 10:23:14;;;;;;;47.78;23.30;;;3.40;99.90;;;;;;5043927;28;20025;-48
2020/12/03 10:25:41;;;;;;;43.75;22.88;;;3.30;99.90;;;;;;5049578;28;20017;-49
2020/12/03 10:28:34;;;;;;;49.40;23.38;;;3.30;99.90;;;;;;5030680;28;20575;-48
2020/12/03 10:31:01;;;;;;;47.90;23.88;;;3.30;99.90;;;;;;5028279;28;20021;-48
2020/12/03 10:33:30;;;;;;;50.17;24.52;;;3.30;99.90;;;;;;5028294;28;20503;-49
2020/12/03 10:35:59;;;;;;;46.53;23.90;;;3.20;99.90;;;;;;5029464;28;20084;-48
2020/12/03 10:38:36;;;;;;;47.45;24.23;;;3.30;99.90;;;;;;5034465;28;20036;-49
2020/12/03 10:41:04;;;;;;;52.67;24.48;;;3.20;99.90;;;;;;5037107;28;20021;-48
2020/12/03 10:43:34;;;;;;;47.42;25.05;;;3.20;99.90;;;;;;5034792;28;20017;-48
2020/12/03 10:46:04;;;;;;;47.85;23.83;;;3.20;99.90;;;;;;5029080;28;20028;-50
2020/12/03 10:48:37;;;;;;;35.50;17.83;;;3.20;99.90;;;;;;5029722;28;20064;-47
2020/12/03 10:51:06;;;;;;;49.00;22.75;;;3.20;99.90;;;;;;5049295;28;20029;-48
2020/12/03 10:53:32;;;;;;;45.50;23.40;;;3.20;99.90;;;;;;5049072;28;20120;-48
2020/12/03 10:56:02;;;;;;;46.83;23.85;;;3.20;99.90;;;;;;5049516;28;20206;-49
2020/12/03 10:58:38;;;;;;;49.13;23.77;;;3.20;99.90;;;;;;5046332;28;20044;-48
2020/12/03 11:01:06;;;;;;;45.75;24.23;;;3.20;99.90;;;;;;5046624;28;20393;-49
2020/12/03 11:03:33;;;;;;;46.95;24.40;;;3.20;99.90;;;;;;5048160;28;20020;-48
2020/12/03 11:05:59;;;;;;;48.47;22.75;;;3.20;99.90;;;;;;5046825;28;20025;-52
2020/12/03 11:08:34;;;;;;;43.88;23.10;;;3.20;99.90;;;;;;5042443;28;20021;-49
2020/12/03 11:11:00;;;;;;;47.20;23.50;;;3.10;99.90;;;;;;5026964;28;20018;-48
2020/12/03 11:13:26;;;;;;;51.92;25.30;;;3.20;99.90;;;;;;5037592;28;20355;-48
2020/12/03 11:15:57;;;;;;;48.10;23.63;;;3.20;99.90;;;;;;5048330;28;20021;-48
2020/12/03 11:18:23;;;;;;;51.35;24.88;;;3.20;99.90;;;;;;5033047;28;20037;-47
2020/12/03 11:21:02;;;;;;;47.13;23.08;;;3.20;99.90;;;;;;5029953;28;20033;-48
2020/12/03 11:23:29;;;;;;;51.35;23.30;;;3.20;99.90;;;;;;5048166;28;20215;-48
2020/12/03 11:26:07;;;;;;;48.28;23.05;;;3.20;99.90;;;;;;5047171;28;20108;-47
2020/12/03 11:28:36;;;;;;;47.10;24.17;;;3.20;99.90;;;;;;5048228;28;20017;-47
2020/12/03 11:31:05;;;;;;;44.78;23.42;;;3.20;99.90;;;;;;5046781;28;20513;-50
2020/12/03 11:33:32;;;;;;;51.63;24.30;;;3.20;99.90;;;;;;5048561;28;20029;-49
2020/12/03 11:36:09;;;;;;;48.75;24.15;;;3.20;99.90;;;;;;5043726;28;20925;-47
2020/12/03 11:38:35;;;;;;;46.42;25.05;;;3.20;99.90;;;;;;5027808;28;20399;-47
2020/12/03 11:41:18;;;;;;;48.95;24.13;;;3.20;99.90;;;;;;5027413;28;20336;-48
2020/12/03 11:48:59;;;;;;;49.17;23.88;;;3.30;99.90;;;;;;5043610;28;20078;-48
2020/12/03 11:51:43;;;;;;;44.80;23.13;;;3.30;99.90;;;;;;5047163;28;20025;-46
2020/12/03 11:54:09;;;;;;;46.15;23.35;;;3.30;99.90;;;;;;5046661;28;20509;-48
2020/12/03 11:56:37;;;;;;;47.55;23.15;;;3.40;99.90;;;;;;5028084;28;20320;-48
2020/12/03 11:59:17;;;;;;;49.58;24.13;;;3.40;99.90;;;;;;5045707;28;20025;-51
2020/12/03 12:01:52;;;;;;;51.53;24.00;;;3.40;99.90;;;;;;5043029;28;20393;-47
2020/12/03 12:04:22;;;;;;;45.78;23.10;;;3.50;99.90;;;;;;5028035;28;20061;-48
2020/12/03 12:07:40;;;;;;;52.45;25.15;;;3.60;99.90;;;;;;5031211;28;20079;-48
2020/12/03 12:09:51;;;;;;;48.97;23.80;;;3.60;99.90;;;;;;5033370;28;20049;-50
2020/12/03 12:12:20;;;;;;;49.05;23.85;;;3.60;99.90;;;;;;5031237;28;20061;-49
2020/12/03 12:14:47;;;;;;;47.70;23.23;;;3.60;99.90;;;;;;5031362;28;20572;-48
2020/12/03 12:17:14;;;;;;;53.58;25.73;;;3.60;99.90;;;;;;5040444;28;20084;-49
2020/12/03 12:19:41;;;;;;;43.63;23.05;;;3.60;99.90;;;;;;5026630;28;20040;-48
2020/12/03 12:22:09;;;;;;;45.20;22.80;;;3.60;99.90;;;;;;5041812;28;20021;-49
2020/12/03 12:24:40;;;;;;;44.83;23.15;;;3.60;99.90;;;;;;5047702;28;20195;-49
2020/12/03 12:27:05;;;;;;;45.42;22.77;;;3.60;99.90;;;;;;5039317;28;20044;-50
2020/12/03 12:29:31;;;;;;;46.75;23.60;;;3.50;99.90;;;;;;5033489;28;20033;-47
2020/12/03 12:31:56;;;;;;;53.90;24.23;;;3.50;99.90;;;;;;5036176;28;20555;-49
2020/12/03 12:34:22;;;;;;;41.17;20.70;;;3.60;99.90;;;;;;5032041;28;20033;-50
2020/12/03 12:36:47;;;;;;;50.10;25.13;;;3.50;99.90;;;;;;5024902;28;20030;-50
2020/12/03 12:39:14;;;;;;;47.78;23.75;;;3.40;99.90;;;;;;5032595;28;20112;-47
2020/12/03 12:41:39;;;;;;;48.95;24.60;;;3.40;99.90;;;;;;5040082;28;20029;-48
2020/12/03 12:44:05;;;;;;;49.05;25.17;;;3.40;99.90;;;;;;5042284;28;20383;-48
2020/12/03 12:46:31;;;;;;;46.25;22.80;;;3.40;99.90;;;;;;5034089;28;20037;-48
2020/12/03 12:48:56;;;;;;;43.97;22.70;;;3.40;99.90;;;;;;5026772;28;20030;-49
2020/12/03 12:51:21;;;;;;;48.38;24.77;;;3.50;99.90;;;;;;5030579;28;20033;-47
2020/12/03 12:53:47;;;;;;;47.05;23.52;;;3.50;99.90;;;;;;5047177;28;20041;-50
2020/12/03 12:56:13;;;;;;;51.58;23.65;;;3.50;99.90;;;;;;5046609;28;20120;-48
2020/12/03 12:58:39;;;;;;;45.92;24.15;;;3.50;99.90;;;;;;5046143;28;20036;-50
2020/12/03 13:01:05;;;;;;;51.47;24.00;;;3.60;99.90;;;;;;5045384;28;20120;-47
2020/12/03 13:03:32;;;;;;;44.42;22.30;;;3.60;99.90;;;;;;5025974;28;20022;-50
2020/12/03 13:05:59;;;;;;;46.28;22.30;;;3.50;99.90;;;;;;5026286;28;20108;-48
2020/12/03 13:08:27;;;;;;;45.67;23.70;;;3.40;99.90;;;;;;5045236;28;20655;-50